Time;durP1;ratioP1;P1;durP2;ratioP2;P2;SDS_P1;SDS_P2;PMS_P1;PMS_P2;Temp;Humidity;BMP_temperature;BMP_pressure;BME280_temperature;BME280_humidity;BME280_pressure;Samples;Min_cycle;Max_cycle;Signal;HPM_P1;HPM_P2
2021/12/15 05:00:50;;;;;;;67.77;25.23;;;6.80;99.90;;;;;;5829740;23;20528;-79
2021/12/15 05:03:17;;;;;;;66.20;24.50;;;6.80;99.90;;;;;;4956880;29;21040;-79
2021/12/15 05:05:45;;;;;;;69.80;26.23;;;6.80;99.90;;;;;;4956604;29;20902;-79
2021/12/15 05:08:12;;;;;;;64.00;23.23;;;6.90;99.90;;;;;;4956882;29;21014;-79
2021/12/15 05:10:39;;;;;;;67.50;25.67;;;6.80;99.90;;;;;;4956685;28;20559;-79
2021/12/15 05:13:08;;;;;;;62.20;24.57;;;6.80;99.90;;;;;;4956828;29;20489;-80
2021/12/15 05:15:37;;;;;;;77.00;25.93;;;6.80;99.90;;;;;;4983386;23;20579;-79
2021/12/15 05:18:07;;;;;;;76.23;25.57;;;6.80;99.90;;;;;;4960591;29;20484;-79
2021/12/15 05:20:36;;;;;;;65.50;26.07;;;6.80;99.90;;;;;;4956413;29;20948;-79
2021/12/15 05:23:04;;;;;;;63.77;26.17;;;6.80;99.90;;;;;;4957322;28;20452;-79
2021/12/15 05:25:31;;;;;;;68.90;25.17;;;6.80;99.90;;;;;;4956906;28;20532;-80
2021/12/15 05:27:58;;;;;;;74.27;28.30;;;6.80;99.90;;;;;;4957097;29;20512;-80
2021/12/15 05:30:25;;;;;;;75.33;27.13;;;6.80;99.90;;;;;;4956242;29;20535;-80
2021/12/15 05:32:53;;;;;;;57.30;23.47;;;6.80;99.90;;;;;;4956681;29;20588;-80
2021/12/15 05:35:23;;;;;;;65.00;25.00;;;6.90;99.90;;;;;;4956723;28;20918;-80
2021/12/15 05:37:51;;;;;;;66.93;26.47;;;6.90;99.90;;;;;;4956717;29;20461;-80
2021/12/15 05:40:18;;;;;;;69.10;25.50;;;6.90;99.90;;;;;;4955870;28;20520;-80
2021/12/15 05:42:45;;;;;;;74.87;25.43;;;6.90;99.90;;;;;;4956877;29;20532;-80
2021/12/15 05:45:13;;;;;;;75.90;27.03;;;6.90;99.90;;;;;;4956441;28;21024;-80
2021/12/15 05:47:41;;;;;;;68.60;24.47;;;6.90;99.90;;;;;;4956987;29;20472;-80
2021/12/15 05:50:10;;;;;;;64.77;23.93;;;6.90;99.90;;;;;;4956796;29;20544;-80
2021/12/15 05:52:39;;;;;;;71.23;25.07;;;6.90;99.90;;;;;;4956354;29;20588;-80
2021/12/15 05:55:09;;;;;;;60.57;23.33;;;6.90;99.90;;;;;;4955836;28;20496;-80
2021/12/15 05:57:36;;;;;;;57.50;23.37;;;6.90;99.90;;;;;;4954916;29;20552;-79
2021/12/15 06:00:09;;;;;;;59.70;24.93;;;6.90;99.90;;;;;;4954680;28;20535;-79
2021/12/15 06:02:36;;;;;;;62.90;25.10;;;6.80;99.90;;;;;;4954167;29;21000;-70
2021/12/15 06:05:04;;;;;;;57.40;24.90;;;6.80;99.90;;;;;;4954070;28;20480;-70
2021/12/15 06:07:31;;;;;;;62.00;25.37;;;6.80;99.90;;;;;;4954458;28;20563;-78
2021/12/15 06:09:59;;;;;;;58.67;24.47;;;6.90;99.90;;;;;;4954468;28;21075;-78
2021/12/15 06:12:26;;;;;;;59.60;24.63;;;6.80;99.90;;;;;;4954984;29;20587;-78
2021/12/15 06:14:53;;;;;;;52.33;23.60;;;6.90;99.90;;;;;;4954607;28;20523;-78
2021/12/15 06:17:25;;;;;;;63.30;24.40;;;6.80;99.90;;;;;;4955277;29;20467;-78
2021/12/15 06:19:52;;;;;;;56.90;23.70;;;6.80;99.90;;;;;;4955098;29;20461;-78
2021/12/15 06:22:24;;;;;;;56.00;22.90;;;6.80;99.90;;;;;;4955076;29;20464;-78
2021/12/15 06:24:51;;;;;;;57.43;22.43;;;6.80;99.90;;;;;;4955757;28;20477;-78
2021/12/15 06:27:20;;;;;;;47.13;20.93;;;6.80;99.90;;;;;;4955315;29;20521;-78
2021/12/15 06:29:48;;;;;;;46.73;21.10;;;6.80;99.90;;;;;;4954709;29;20453;-77
2021/12/15 06:32:16;;;;;;;45.63;21.57;;;6.80;99.90;;;;;;4955008;29;20528;-78
2021/12/15 06:34:43;;;;;;;43.70;20.83;;;6.80;99.90;;;;;;4954997;28;20512;-78
2021/12/15 06:37:11;;;;;;;43.93;20.73;;;6.80;99.90;;;;;;4955461;29;20887;-78
2021/12/15 06:39:38;;;;;;;50.43;20.43;;;6.80;99.90;;;;;;4954680;28;20544;-79
2021/12/15 06:42:06;;;;;;;46.47;20.67;;;6.80;99.90;;;;;;4955160;29;20536;-79
2021/12/15 06:44:34;;;;;;;43.77;19.43;;;6.80;99.90;;;;;;4955831;28;20511;-78
2021/12/15 06:58:17;;;;;;;41.67;18.07;;;6.80;99.90;;;;;;4957777;29;20533;-77
2021/12/15 07:00:48;;;;;;;46.63;19.83;;;6.80;99.90;;;;;;4956653;29;20453;-78
2021/12/15 07:03:17;;;;;;;46.40;20.27;;;6.80;99.90;;;;;;4957657;29;21017;-78
2021/12/15 07:05:44;;;;;;;48.67;19.80;;;6.90;99.90;;;;;;4957613;28;20563;-78
2021/12/15 07:08:13;;;;;;;43.80;19.27;;;6.90;99.90;;;;;;4956891;29;20547;-78
2021/12/15 07:10:43;;;;;;;51.33;19.33;;;6.90;99.90;;;;;;4957543;28;20560;-78
2021/12/15 07:13:12;;;;;;;50.10;20.73;;;6.90;99.90;;;;;;4957991;29;20579;-78
2021/12/15 07:15:39;;;;;;;40.07;17.93;;;6.90;99.90;;;;;;4957668;28;20512;-78
2021/12/15 07:18:11;;;;;;;40.13;18.30;;;6.90;99.90;;;;;;4957505;29;20543;-78
2021/12/15 07:20:43;;;;;;;36.80;16.60;;;6.90;99.90;;;;;;4956940;29;20445;-78
2021/12/15 07:23:12;;;;;;;35.10;16.30;;;6.90;99.90;;;;;;4957159;29;20467;-78
2021/12/15 07:25:41;;;;;;;30.20;15.57;;;6.90;99.90;;;;;;4957410;28;20515;-78
2021/12/15 07:28:08;;;;;;;33.90;16.77;;;6.90;99.90;;;;;;4957409;29;20540;-78
2021/12/15 07:30:37;;;;;;;26.83;13.83;;;6.90;99.90;;;;;;4956784;29;20552;-78
2021/12/15 07:33:06;;;;;;;51.80;22.10;;;6.90;99.90;;;;;;4957474;29;20844;-78
2021/12/15 07:35:35;;;;;;;47.53;21.07;;;6.90;99.90;;;;;;4957545;28;20504;-78
2021/12/15 07:38:02;;;;;;;67.53;22.13;;;7.00;99.90;;;;;;4956987;29;20535;-78
2021/12/15 07:40:29;;;;;;;46.53;17.67;;;6.90;99.90;;;;;;4957343;29;20488;-78
2021/12/15 07:43:06;;;;;;;40.97;19.03;;;6.90;99.90;;;;;;4958334;28;20536;-78
2021/12/15 07:45:35;;;;;;;52.90;20.70;;;6.90;99.90;;;;;;4956246;28;20495;-78
2021/12/15 07:48:05;;;;;;;44.03;18.43;;;6.90;99.90;;;;;;4955508;29;20480;-78
2021/12/15 07:50:36;;;;;;;52.23;22.00;;;6.90;99.90;;;;;;4954476;29;20539;-78
2021/12/15 07:53:04;;;;;;;55.63;21.50;;;6.90;99.90;;;;;;4955308;29;20583;-78
2021/12/15 07:55:31;;;;;;;41.13;17.80;;;6.90;99.90;;;;;;4955006;28;20564;-78
2021/12/15 07:57:58;;;;;;;35.10;17.07;;;6.90;99.90;;;;;;4954686;29;20903;-78
2021/12/15 08:00:26;;;;;;;38.63;17.40;;;6.90;99.90;;;;;;4955489;29;20556;-78
2021/12/15 08:02:54;;;;;;;38.93;18.97;;;7.00;99.90;;;;;;4956009;28;20480;-79
2021/12/15 08:05:21;;;;;;;40.80;17.87;;;6.90;99.90;;;;;;4957698;28;20809;-78
2021/12/15 08:07:50;;;;;;;32.70;16.97;;;7.00;99.90;;;;;;4956908;29;20552;-79
2021/12/15 08:10:18;;;;;;;32.57;17.33;;;7.00;99.90;;;;;;4956770;29;20536;-78
2021/12/15 08:12:46;;;;;;;33.23;17.63;;;7.00;99.90;;;;;;4957059;29;20497;-78
2021/12/15 08:15:14;;;;;;;30.50;16.00;;;7.00;99.90;;;;;;4954800;28;20571;-69
2021/12/15 08:17:43;;;;;;;35.90;17.23;;;7.00;99.90;;;;;;4955215;29;20563;-69
2021/12/15 08:20:12;;;;;;;30.70;15.70;;;7.00;99.90;;;;;;4955149;28;20488;-78
2021/12/15 08:22:40;;;;;;;36.90;20.30;;;7.00;99.90;;;;;;4956508;29;20476;-78
2021/12/15 08:25:11;;;;;;;31.30;17.63;;;7.00;99.90;;;;;;4955853;28;20563;-78
2021/12/15 08:27:39;;;;;;;36.37;18.03;;;7.00;99.90;;;;;;4955567;29;20559;-78
2021/12/15 08:30:08;;;;;;;31.80;17.50;;;7.00;99.90;;;;;;4955233;29;20491;-78
2021/12/15 08:32:35;;;;;;;30.50;16.43;;;7.00;99.90;;;;;;4955736;29;20529;-78
2021/12/15 08:35:03;;;;;;;29.13;16.83;;;7.00;99.90;;;;;;4956011;28;20568;-78
2021/12/15 08:37:30;;;;;;;31.93;18.63;;;7.00;99.90;;;;;;4956283;29;20878;-78
2021/12/15 08:39:57;;;;;;;30.43;16.27;;;7.00;99.90;;;;;;4955611;28;20969;-78
2021/12/15 08:42:26;;;;;;;33.43;18.10;;;7.00;99.90;;;;;;4956510;29;20545;-77
2021/12/15 08:44:53;;;;;;;29.47;16.03;;;7.00;99.90;;;;;;4954506;28;21059;-77
2021/12/15 08:47:20;;;;;;;30.60;17.00;;;7.10;99.90;;;;;;4954425;29;20503;-79
2021/12/15 08:49:47;;;;;;;26.50;16.00;;;7.10;99.90;;;;;;4954206;28;20545;-77
2021/12/15 08:52:14;;;;;;;25.03;15.67;;;7.10;99.90;;;;;;4954381;29;20535;-77
2021/12/15 08:54:41;;;;;;;23.13;15.20;;;7.10;99.90;;;;;;4954244;28;20535;-77
2021/12/15 08:57:10;;;;;;;25.97;15.47;;;7.10;99.90;;;;;;4954462;28;20901;-77
2021/12/15 08:59:38;;;;;;;27.90;16.27;;;7.10;99.90;;;;;;4954344;29;20457;-77
2021/12/15 09:02:05;;;;;;;25.93;15.83;;;7.10;99.90;;;;;;4954230;29;20532;-77
2021/12/15 09:04:32;;;;;;;28.30;16.20;;;7.10;99.90;;;;;;4954066;28;20540;-78
2021/12/15 09:07:00;;;;;;;25.27;15.93;;;7.20;99.90;;;;;;4953652;28;20504;-77
2021/12/15 09:09:27;;;;;;;23.63;15.37;;;7.20;99.90;;;;;;4953594;28;20829;-78
2021/12/15 09:11:55;;;;;;;24.50;15.33;;;7.20;99.90;;;;;;4953819;28;20456;-78
2021/12/15 09:14:22;;;;;;;22.60;14.97;;;7.20;99.90;;;;;;4952981;28;20488;-78
2021/12/15 09:16:55;;;;;;;22.83;14.00;;;7.20;99.90;;;;;;4953713;28;20987;-77
2021/12/15 09:19:22;;;;;;;24.00;14.87;;;7.20;99.90;;;;;;4953204;29;20544;-77
2021/12/15 09:21:51;;;;;;;21.97;14.20;;;7.20;99.90;;;;;;4953634;29;20453;-77
2021/12/15 09:24:20;;;;;;;24.77;15.20;;;7.20;99.90;;;;;;4953831;28;20484;-77
2021/12/15 09:26:47;;;;;;;25.47;15.57;;;7.30;99.90;;;;;;4954566;29;20544;-78
2021/12/15 09:29:15;;;;;;;22.47;13.87;;;7.30;99.90;;;;;;4955872;29;20536;-78
2021/12/15 09:31:43;;;;;;;24.27;15.30;;;7.30;99.90;;;;;;4954859;29;20445;-78
2021/12/15 09:34:17;;;;;;;24.30;14.17;;;7.30;99.90;;;;;;4955619;29;20503;-77
2021/12/15 09:36:45;;;;;;;26.10;14.90;;;7.30;99.90;;;;;;4954997;29;20472;-78
2021/12/15 09:39:15;;;;;;;27.50;15.07;;;7.30;99.90;;;;;;4955240;29;20910;-78
2021/12/15 09:41:43;;;;;;;28.67;15.60;;;7.30;99.90;;;;;;4955409;29;20539;-78
2021/12/15 09:44:14;;;;;;;24.97;15.03;;;7.30;99.90;;;;;;4955507;29;20477;-78
2021/12/15 09:47:07;;;;;;;34.47;15.93;;;7.30;99.90;;;;;;4954719;28;20477;-76
2021/12/15 10:01:51;;;;;;;24.70;14.67;;;7.30;99.90;;;;;;4954309;29;20479;-71
2021/12/15 10:03:45;;;;;;;23.47;14.80;;;7.30;99.90;;;;;;4954177;29;20443;-77
2021/12/15 10:06:33;;;;;;;23.90;14.57;;;7.30;99.90;;;;;;4953915;28;20472;-77
2021/12/15 10:11:56;;;;;;;21.67;14.37;;;7.30;99.90;;;;;;4954108;29;20488;-77
2021/12/15 10:17:40;;;;;;;22.20;14.27;;;7.30;99.90;;;;;;4954035;29;20812;-77
2021/12/15 10:20:09;;;;;;;24.20;14.27;;;7.30;99.90;;;;;;4953851;28;20519;-77
2021/12/15 10:22:42;;;;;;;21.20;13.30;;;7.30;99.90;;;;;;4953800;29;21004;-77
2021/12/15 10:25:14;;;;;;;25.70;14.40;;;7.30;99.90;;;;;;4953476;28;20981;-77
2021/12/15 10:27:45;;;;;;;20.03;13.57;;;7.30;99.90;;;;;;4953806;29;20903;-77
2021/12/15 10:30:24;;;;;;;22.93;14.83;;;7.30;99.90;;;;;;4953379;29;20519;-77
2021/12/15 10:32:58;;;;;;;18.40;12.53;;;7.30;99.90;;;;;;4953654;29;20505;-77
2021/12/15 10:35:28;;;;;;;21.73;12.57;;;7.40;99.90;;;;;;4946984;29;20560;-77
2021/12/15 10:38:20;;;;;;;17.03;12.20;;;7.40;99.90;;;;;;4937766;29;20537;-76
2021/12/15 10:40:51;;;;;;;28.30;18.07;;;7.40;99.90;;;;;;4934209;29;21022;-77
2021/12/15 10:43:20;;;;;;;25.80;16.13;;;7.30;99.90;;;;;;4934536;29;20493;-76
2021/12/15 10:45:50;;;;;;;22.40;14.47;;;7.40;99.90;;;;;;4934593;29;20513;-76
2021/12/15 10:48:34;;;;;;;25.60;16.57;;;7.30;99.90;;;;;;4934468;29;20545;-76
2021/12/15 10:51:03;;;;;;;34.00;17.07;;;7.30;99.90;;;;;;4934153;29;20926;-76
2021/12/15 10:53:35;;;;;;;24.40;15.30;;;7.40;99.90;;;;;;4934420;29;21031;-76
2021/12/15 10:56:10;;;;;;;16.30;12.33;;;7.40;99.90;;;;;;4934404;29;20933;-76
2021/12/15 10:58:40;;;;;;;22.00;14.13;;;7.40;99.90;;;;;;4934554;29;20453;-76
2021/12/15 11:01:37;;;;;;;19.50;12.83;;;7.40;99.90;;;;;;4934247;29;20533;-76
2021/12/15 11:04:19;;;;;;;20.30;12.70;;;7.30;99.90;;;;;;4934460;29;20540;-76
2021/12/15 11:06:47;;;;;;;25.13;17.30;;;7.30;99.90;;;;;;4934369;29;20549;-76
2021/12/15 11:09:20;;;;;;;22.60;15.47;;;7.30;99.90;;;;;;4934061;29;21001;-76
2021/12/15 11:12:06;;;;;;;20.83;13.80;;;7.30;99.90;;;;;;4934279;29;20509;-76
2021/12/15 11:14:35;;;;;;;23.30;13.43;;;7.30;99.90;;;;;;4934082;29;20925;-76
2021/12/15 11:17:06;;;;;;;18.23;12.00;;;7.40;99.90;;;;;;4934433;29;20541;-76
2021/12/15 11:19:42;;;;;;;20.90;12.47;;;7.40;99.90;;;;;;4934194;29;20493;-75
2021/12/15 11:22:32;;;;;;;18.77;13.00;;;7.40;99.90;;;;;;4939291;29;20535;-75
2021/12/15 11:25:01;;;;;;;23.70;13.40;;;7.50;99.90;;;;;;4934241;29;20921;-75
2021/12/15 11:27:29;;;;;;;17.33;12.10;;;7.50;99.90;;;;;;4934077;29;20867;-75
2021/12/15 11:29:56;;;;;;;20.87;13.00;;;7.40;99.90;;;;;;4934032;29;20532;-75
2021/12/15 11:32:45;;;;;;;18.57;11.70;;;7.50;99.90;;;;;;4934079;29;20540;-76
2021/12/15 11:35:17;;;;;;;17.63;11.30;;;7.50;99.90;;;;;;4934248;29;20473;-75
2021/12/15 11:38:01;;;;;;;18.67;12.47;;;7.50;99.90;;;;;;4935326;29;20468;-76
2021/12/15 11:40:34;;;;;;;17.60;11.10;;;7.50;99.90;;;;;;4937250;29;20521;-76
2021/12/15 11:43:02;;;;;;;19.57;11.40;;;7.40;99.90;;;;;;4937431;29;20536;-76
2021/12/15 11:45:30;;;;;;;13.07;9.50;;;7.50;99.90;;;;;;4937305;29;20990;-76
2021/12/15 11:48:19;;;;;;;18.60;13.17;;;7.50;99.90;;;;;;4937072;29;20981;-76
2021/12/15 11:50:49;;;;;;;17.20;12.27;;;7.50;99.90;;;;;;4936371;29;20517;-76
2021/12/15 11:53:37;;;;;;;17.77;11.40;;;7.50;99.90;;;;;;4937342;29;20529;-76
2021/12/15 11:56:31;;;;;;;16.30;11.20;;;7.50;99.90;;;;;;4939007;29;20561;-76
2021/12/15 11:59:18;;;;;;;15.47;10.83;;;7.50;99.90;;;;;;4933686;29;20505;-76
2021/12/15 12:01:59;;;;;;;16.60;12.57;;;7.50;99.90;;;;;;4940788;29;20540;-76
2021/12/15 12:04:36;;;;;;;15.47;11.03;;;7.50;99.90;;;;;;4939923;28;20465;-76
2021/12/15 12:07:22;;;;;;;16.20;12.00;;;7.50;99.90;;;;;;4956281;29;20468;-76
2021/12/15 12:09:54;;;;;;;12.40;9.63;;;7.50;99.90;;;;;;4955268;29;20519;-76
2021/12/15 12:12:26;;;;;;;17.77;11.87;;;7.50;99.90;;;;;;4954755;29;20503;-76
2021/12/15 12:14:55;;;;;;;13.70;9.83;;;7.50;99.90;;;;;;4955174;28;20592;-76
2021/12/15 12:17:25;;;;;;;15.60;10.80;;;7.50;99.90;;;;;;4955253;29;20484;-76
2021/12/15 12:19:56;;;;;;;11.33;8.10;;;7.50;99.90;;;;;;4955228;29;20559;-76
2021/12/15 12:22:25;;;;;;;13.97;9.00;;;7.50;99.90;;;;;;4955632;28;20956;-76
2021/12/15 12:24:55;;;;;;;10.67;8.23;;;7.60;99.90;;;;;;4954614;28;20548;-76
2021/12/15 12:27:26;;;;;;;12.53;8.70;;;7.60;99.90;;;;;;4954802;29;20456;-76
2021/12/15 12:29:54;;;;;;;12.83;9.90;;;7.60;99.90;;;;;;4954697;29;21000;-76
2021/12/15 12:32:22;;;;;;;16.47;10.77;;;7.60;99.90;;;;;;4954870;29;20457;-76
2021/12/15 12:34:51;;;;;;;13.73;9.50;;;7.60;99.90;;;;;;4954903;28;20580;-76
2021/12/15 12:37:18;;;;;;;10.67;8.20;;;7.60;99.90;;;;;;4954696;29;20516;-76
2021/12/15 12:39:48;;;;;;;12.03;8.80;;;7.60;99.90;;;;;;4954713;28;20577;-76
2021/12/15 12:42:31;;;;;;;14.07;9.10;;;7.60;99.90;;;;;;4955005;28;20484;-76
2021/12/15 12:45:13;;;;;;;12.50;8.53;;;7.60;99.90;;;;;;4954846;28;20473;-76
2021/12/15 12:47:47;;;;;;;13.43;9.63;;;7.60;99.90;;;;;;4951304;28;20453;-76
2021/12/15 12:50:48;;;;;;;11.37;8.97;;;7.60;99.90;;;;;;4942849;28;20482;-76
2021/12/15 12:59:32;;;;;;;11.27;8.00;;;7.50;99.90;;;;;;4934842;29;20848;-76
2021/12/15 13:02:04;;;;;;;10.20;8.20;;;7.60;99.90;;;;;;4935235;29;20456;-76
2021/12/15 13:04:40;;;;;;;13.40;8.23;;;7.60;99.90;;;;;;4935904;29;20450;-69
2021/12/15 13:07:07;;;;;;;10.60;7.83;;;7.60;99.90;;;;;;4935787;29;20541;-70
2021/12/15 13:09:49;;;;;;;20.90;9.80;;;7.60;99.90;;;;;;4935765;29;20453;-76
2021/12/15 13:12:25;;;;;;;11.07;8.87;;;7.50;99.90;;;;;;4935767;29;20489;-76
2021/12/15 13:14:56;;;;;;;11.60;7.97;;;7.50;99.90;;;;;;4935364;29;20508;-77
2021/12/15 13:17:27;;;;;;;11.33;8.70;;;7.50;99.90;;;;;;4935745;29;20513;-77
2021/12/15 13:19:55;;;;;;;11.87;9.33;;;7.60;99.90;;;;;;4935584;29;20465;-77
2021/12/15 13:22:36;;;;;;;10.50;8.77;;;7.60;99.90;;;;;;4935570;29;20458;-77
2021/12/15 13:30:47;;;;;;;11.53;7.53;;;7.50;99.90;;;;;;4935307;29;20433;-77
2021/12/15 13:33:19;;;;;;;8.40;6.70;;;7.50;99.90;;;;;;4935806;29;20500;-77
2021/12/15 13:35:51;;;;;;;9.17;7.73;;;7.50;99.90;;;;;;4935265;29;20986;-77
2021/12/15 13:38:29;;;;;;;8.80;7.50;;;7.50;99.90;;;;;;4935566;29;20517;-76
2021/12/15 13:41:04;;;;;;;11.70;7.47;;;7.50;99.90;;;;;;4935355;29;20504;-77
2021/12/15 13:43:44;;;;;;;12.93;7.80;;;7.50;99.90;;;;;;4935433;29;20545;-77
2021/12/15 13:46:30;;;;;;;7.07;6.17;;;7.50;99.90;;;;;;4935060;29;20510;-77
2021/12/15 13:49:05;;;;;;;8.37;6.63;;;7.50;99.90;;;;;;4935131;29;20536;-77
2021/12/15 13:51:55;;;;;;;9.57;6.63;;;7.50;99.90;;;;;;4935310;29;20535;-77
2021/12/15 13:54:53;;;;;;;7.43;6.63;;;7.40;99.90;;;;;;4935158;29;20529;-76
2021/12/15 13:57:24;;;;;;;7.00;6.30;;;7.40;99.90;;;;;;4935249;29;20604;-77
2021/12/15 14:00:00;;;;;;;7.90;6.57;;;7.40;99.90;;;;;;4934028;29;20540;-77
2021/12/15 14:02:32;;;;;;;11.20;7.37;;;7.40;99.90;;;;;;4934189;29;20516;-77
2021/12/15 14:05:01;;;;;;;8.73;6.63;;;7.40;99.90;;;;;;4934643;29;21072;-76
2021/12/15 14:07:36;;;;;;;8.40;6.67;;;7.40;99.90;;;;;;4934797;29;20485;-76
2021/12/15 14:10:38;;;;;;;8.87;7.27;;;7.40;99.90;;;;;;4934383;29;20961;-77
2021/12/15 14:13:06;;;;;;;9.43;7.83;;;7.30;99.90;;;;;;4937705;28;20465;-76
2021/12/15 14:16:00;;;;;;;9.47;8.10;;;7.30;99.90;;;;;;4934277;29;20570;-76
2021/12/15 14:18:31;;;;;;;8.53;7.40;;;7.30;99.90;;;;;;4911327;29;20477;-77
2021/12/15 14:21:01;;;;;;;7.93;7.00;;;7.40;99.90;;;;;;4934049;29;20825;-77
2021/12/15 14:23:31;;;;;;;7.47;6.17;;;7.30;99.90;;;;;;4934614;29;20544;-77
2021/12/15 14:26:02;;;;;;;9.00;6.83;;;7.40;99.90;;;;;;4935078;29;20556;-77
2021/12/15 14:28:31;;;;;;;9.90;7.63;;;7.40;99.90;;;;;;4934443;29;21018;-77
2021/12/15 14:31:02;;;;;;;9.93;7.80;;;7.30;99.90;;;;;;4934423;29;20489;-77
2021/12/15 14:33:35;;;;;;;7.83;7.03;;;7.30;99.90;;;;;;4934622;29;20485;-77
2021/12/15 14:36:08;;;;;;;12.03;6.83;;;7.30;99.90;;;;;;4933466;29;20505;-77
2021/12/15 14:38:42;;;;;;;7.87;6.63;;;7.40;99.90;;;;;;4933655;29;20521;-77
2021/12/15 14:41:13;;;;;;;9.53;6.97;;;7.40;99.90;;;;;;4933667;29;20553;-77
2021/12/15 14:43:41;;;;;;;10.00;7.23;;;7.40;99.90;;;;;;4933630;29;20449;-77
2021/12/15 14:46:21;;;;;;;9.17;7.33;;;7.30;99.90;;;;;;4933513;29;20525;-77
2021/12/15 14:49:00;;;;;;;8.60;6.97;;;7.30;99.90;;;;;;4933464;29;20480;-77
2021/12/15 14:51:27;;;;;;;10.00;6.77;;;7.30;99.90;;;;;;4933509;29;20486;-77
2021/12/15 14:53:57;;;;;;;10.90;7.10;;;7.30;99.90;;;;;;4933618;29;20540;-77
2021/12/15 14:56:25;;;;;;;8.30;6.40;;;7.30;99.90;;;;;;4933504;29;20549;-77
2021/12/15 14:58:55;;;;;;;11.33;8.13;;;7.30;99.90;;;;;;4933145;29;20454;-77
2021/12/15 15:01:25;;;;;;;11.20;7.70;;;7.30;99.90;;;;;;4933328;29;20453;-77
2021/12/15 15:04:01;;;;;;;7.10;6.37;;;7.30;99.90;;;;;;4933619;29;20457;-77
2021/12/15 15:06:29;;;;;;;7.50;6.80;;;7.30;99.90;;;;;;4933646;29;20516;-77
2021/12/15 15:09:14;;;;;;;9.30;7.20;;;7.30;99.90;;;;;;4933239;29;20456;-77
2021/12/15 15:11:49;;;;;;;10.57;7.70;;;7.30;99.90;;;;;;4933122;29;20496;-77
2021/12/15 15:14:29;;;;;;;10.27;7.07;;;7.30;99.90;;;;;;4936905;29;21100;-77
2021/12/15 15:16:56;;;;;;;9.10;6.50;;;7.30;99.90;;;;;;4937091;29;20492;-77
2021/12/15 15:19:24;;;;;;;10.02;8.05;;;7.20;99.90;;;;;;4936387;29;20447;-77
2021/12/15 15:21:55;;;;;;;11.00;8.87;;;7.30;99.90;;;;;;4955004;29;20300;-77
2021/12/15 15:24:31;;;;;;;10.40;8.20;;;7.30;99.90;;;;;;4943410;28;20929;-77
2021/12/15 15:27:01;;;;;;;9.67;7.63;;;7.30;99.90;;;;;;4955523;29;20466;-77
2021/12/15 15:29:47;;;;;;;11.87;8.73;;;7.30;99.90;;;;;;4955927;29;20539;-77
2021/12/15 15:32:22;;;;;;;11.07;8.33;;;7.30;99.90;;;;;;4954936;28;20511;-77
2021/12/15 15:34:52;;;;;;;10.73;7.97;;;7.20;99.90;;;;;;4955635;29;20579;-77
2021/12/15 15:37:24;;;;;;;14.30;8.47;;;7.20;99.90;;;;;;4955643;29;20539;-77
2021/12/15 15:40:09;;;;;;;15.47;9.10;;;7.20;99.90;;;;;;4955394;29;20641;-77
2021/12/15 15:42:36;;;;;;;17.90;10.30;;;7.20;99.90;;;;;;4955442;28;20500;-76
2021/12/15 15:45:04;;;;;;;14.40;9.40;;;7.10;99.90;;;;;;4955783;29;20472;-77
2021/12/15 15:47:31;;;;;;;14.63;9.87;;;7.20;99.90;;;;;;4955940;29;20481;-76
2021/12/15 15:50:02;;;;;;;11.93;8.70;;;7.10;99.90;;;;;;4955970;29;20996;-76
2021/12/15 15:52:29;;;;;;;10.63;8.40;;;7.10;99.90;;;;;;4956272;28;20463;-76
2021/12/15 15:54:56;;;;;;;9.63;7.30;;;7.10;99.90;;;;;;4956245;29;20584;-77
2021/12/15 15:57:23;;;;;;;9.43;7.93;;;7.20;99.90;;;;;;4956070;29;20911;-77
2021/12/15 15:59:53;;;;;;;8.80;7.90;;;7.10;99.90;;;;;;4956284;29;20492;-77
2021/12/15 16:02:21;;;;;;;9.73;8.17;;;7.10;99.90;;;;;;4957063;29;20901;-78
2021/12/15 16:04:48;;;;;;;9.00;7.40;;;7.10;99.90;;;;;;4956132;29;21053;-78
2021/12/15 16:07:22;;;;;;;9.10;7.70;;;7.10;99.90;;;;;;4956079;29;21032;-71
2021/12/15 16:09:51;;;;;;;11.83;9.37;;;7.10;99.90;;;;;;4955731;29;20452;-71
2021/12/15 16:12:21;;;;;;;10.07;8.37;;;7.00;99.90;;;;;;4956253;29;20457;-71
2021/12/15 16:14:51;;;;;;;10.37;8.60;;;7.00;99.90;;;;;;4955719;29;21182;-71
2021/12/15 16:17:29;;;;;;;10.77;8.67;;;7.10;99.90;;;;;;4956152;29;20507;-71
2021/12/15 16:20:13;;;;;;;10.93;8.97;;;7.00;99.90;;;;;;4955755;29;21008;-77
2021/12/15 16:22:53;;;;;;;10.47;8.83;;;7.10;99.90;;;;;;4955671;28;20551;-76
2021/12/15 16:25:23;;;;;;;14.63;10.07;;;7.00;99.90;;;;;;4955522;29;20479;-77
2021/12/15 16:27:54;;;;;;;13.63;10.40;;;7.00;99.90;;;;;;4955835;29;20461;-77
2021/12/15 16:30:24;;;;;;;14.20;10.70;;;7.00;99.90;;;;;;4955472;29;20488;-76
2021/12/15 16:32:54;;;;;;;12.47;9.97;;;7.10;99.90;;;;;;4955421;29;20479;-78
2021/12/15 16:35:24;;;;;;;12.90;9.90;;;7.10;99.90;;;;;;4947483;29;20619;-77
2021/12/15 16:37:52;;;;;;;11.37;9.33;;;7.10;99.90;;;;;;4955735;29;20487;-76
2021/12/15 16:40:31;;;;;;;12.33;10.07;;;7.00;99.90;;;;;;4955902;29;20453;-77
2021/12/15 16:43:08;;;;;;;13.67;10.13;;;7.00;99.90;;;;;;4957758;29;20460;-76
2021/12/15 16:45:37;;;;;;;13.00;9.77;;;7.00;99.90;;;;;;4957572;28;20481;-77
2021/12/15 16:48:24;;;;;;;11.77;9.23;;;7.00;99.90;;;;;;4958439;29;20574;-77
2021/12/15 16:50:58;;;;;;;12.93;10.00;;;7.00;99.90;;;;;;4957714;29;20458;-78
2021/12/15 16:53:37;;;;;;;12.33;9.37;;;7.00;99.90;;;;;;4958008;29;20532;-77
2021/12/15 16:56:06;;;;;;;13.00;10.60;;;6.90;99.90;;;;;;4958550;29;20547;-76
2021/12/15 16:58:33;;;;;;;13.20;10.23;;;6.90;99.90;;;;;;4954668;29;20488;-76
2021/12/15 17:01:00;;;;;;;14.70;11.40;;;6.90;99.90;;;;;;4937188;29;20489;-76
2021/12/15 17:03:34;;;;;;;11.70;9.33;;;6.90;99.90;;;;;;4937340;29;20449;-76
2021/12/15 17:06:01;;;;;;;12.10;10.60;;;7.00;99.90;;;;;;4936889;29;20481;-76
2021/12/15 17:08:28;;;;;;;12.13;10.37;;;7.00;99.90;;;;;;4939405;29;20536;-76
2021/12/15 17:11:02;;;;;;;11.40;9.37;;;6.90;99.90;;;;;;4939887;29;20446;-76
2021/12/15 17:13:33;;;;;;;11.80;9.80;;;7.00;99.90;;;;;;4938267;29;20863;-76
2021/12/15 17:16:08;;;;;;;13.30;10.50;;;7.00;99.90;;;;;;4937910;29;20504;-76
2021/12/15 17:18:38;;;;;;;16.53;10.70;;;7.00;99.90;;;;;;4938428;29;20461;-76
2021/12/15 17:21:17;;;;;;;13.40;10.73;;;6.90;99.90;;;;;;4938009;29;20943;-76
2021/12/15 17:23:49;;;;;;;14.87;11.27;;;6.90;99.90;;;;;;4942979;29;20493;-76
2021/12/15 17:26:25;;;;;;;13.17;10.93;;;6.90;99.90;;;;;;4949110;29;20474;-76
2021/12/15 17:28:55;;;;;;;13.27;11.10;;;6.90;99.90;;;;;;4944894;29;20533;-76
2021/12/15 17:31:26;;;;;;;15.17;11.30;;;6.90;99.90;;;;;;4945473;29;20539;-76
2021/12/15 17:33:57;;;;;;;17.80;11.77;;;7.00;99.90;;;;;;4946069;29;20454;-76
2021/12/15 17:36:32;;;;;;;14.80;10.37;;;6.90;99.90;;;;;;4947212;28;20516;-76
2021/12/15 17:39:07;;;;;;;14.50;10.67;;;6.90;99.90;;;;;;4956015;29;20539;-76
2021/12/15 17:41:38;;;;;;;13.90;11.07;;;7.00;99.90;;;;;;4955024;28;20432;-76
2021/12/15 17:44:10;;;;;;;14.20;10.70;;;6.90;99.90;;;;;;4953858;29;20577;-76
2021/12/15 17:46:40;;;;;;;10.83;9.10;;;6.90;99.90;;;;;;4953411;28;20555;-75
2021/12/15 17:49:13;;;;;;;11.17;9.20;;;6.90;99.90;;;;;;4954309;29;20536;-75
2021/12/15 17:51:46;;;;;;;15.20;11.00;;;6.90;99.90;;;;;;4954326;29;20547;-76
2021/12/15 17:54:16;;;;;;;13.27;11.13;;;6.90;99.90;;;;;;4954357;29;20488;-75
2021/12/15 17:56:44;;;;;;;13.77;11.03;;;6.80;99.90;;;;;;4948285;29;20552;-76
2021/12/15 17:59:11;;;;;;;15.20;10.83;;;6.90;99.90;;;;;;4934775;29;20488;-76
2021/12/15 18:01:41;;;;;;;14.90;11.53;;;6.80;99.90;;;;;;4935031;29;20560;-76
2021/12/15 18:04:10;;;;;;;14.50;10.37;;;6.80;99.90;;;;;;4934850;29;21046;-77
2021/12/15 18:06:38;;;;;;;12.53;9.93;;;6.90;99.90;;;;;;4935070;29;20485;-77
2021/12/15 18:09:07;;;;;;;13.13;10.60;;;6.80;99.90;;;;;;4953672;29;21000;-68
2021/12/15 18:11:35;;;;;;;14.60;11.30;;;6.80;99.90;;;;;;4954053;28;20467;-68
2021/12/15 18:14:05;;;;;;;12.17;9.33;;;6.80;99.90;;;;;;4953859;29;20919;-77
2021/12/15 18:16:35;;;;;;;12.37;10.27;;;6.80;99.90;;;;;;4953720;28;20587;-77
2021/12/15 18:19:03;;;;;;;16.87;11.53;;;6.80;99.90;;;;;;4953433;29;20540;-76
2021/12/15 18:21:32;;;;;;;15.33;11.77;;;6.80;99.90;;;;;;4953854;29;20487;-75
2021/12/15 18:24:01;;;;;;;14.17;11.37;;;6.80;99.90;;;;;;4953418;29;20490;-76
2021/12/15 18:26:30;;;;;;;15.27;10.97;;;6.80;99.90;;;;;;4952817;29;20569;-77
2021/12/15 18:28:58;;;;;;;12.80;11.07;;;6.80;99.90;;;;;;4952585;29;20493;-78
2021/12/15 18:31:31;;;;;;;12.90;10.67;;;6.80;99.90;;;;;;4952540;29;20500;-77
2021/12/15 18:33:59;;;;;;;16.40;11.90;;;6.80;99.90;;;;;;4952928;28;20453;-77
2021/12/15 18:36:26;;;;;;;14.57;11.47;;;6.80;99.90;;;;;;4952672;29;20583;-76
2021/12/15 18:38:53;;;;;;;15.10;11.57;;;6.90;99.90;;;;;;4952424;28;20524;-76
2021/12/15 18:41:25;;;;;;;13.90;11.17;;;6.80;99.90;;;;;;4953349;29;20833;-68
2021/12/15 18:43:54;;;;;;;20.70;11.40;;;6.80;99.90;;;;;;4953464;29;21152;-67